ALK115 VCBI-VRMM
Flight info
| Callsign | ALK115 |
|---|---|
| Flight time | 1h 19m |
| Altitude | 38000 |
| Route | LALUM2D TELIG M512 HOKEY HOKEY1A |
| Aircraft | A20N/M-SDE2E3FGHIRWXY/LB1 |
Departure
| Time | 2026-04-23 00:17 |
|---|---|
| Airport | Bandaranaike International Colombo Airport (VCBI) |
Arrival
| Time | 2026-04-23 01:37 |
|---|---|
| Airport | Velana International Airport (VRMM) |
| Time | Latitude | Longitude | Altitude | Speed | Heading |
|---|---|---|---|---|---|
| 2026-04-22 23:54 | 7.17615 | 79.88567 | 30 ft | 0 kts | 217° |
| 2026-04-23 00:02 | 7.17626 | 79.88576 | 30 ft | 3 kts | 217° |
| 2026-04-23 00:02 | 7.17641 | 79.88587 | 30 ft | 3 kts | 217° |
| 2026-04-23 00:02 | 7.17655 | 79.88598 | 30 ft | 3 kts | 217° |
| 2026-04-23 00:02 | 7.17670 | 79.88610 | 30 ft | 3 kts | 226° |
| 2026-04-23 00:03 | 7.17680 | 79.88621 | 30 ft | 3 kts | 243° |
| 2026-04-23 00:03 | 7.17686 | 79.88638 | 30 ft | 3 kts | 257° |
| 2026-04-23 00:03 | 7.17685 | 79.88657 | 30 ft | 3 kts | 297° |
| 2026-04-23 00:03 | 7.17683 | 79.88661 | 30 ft | 0 kts | 308° |
| 2026-04-23 00:06 | 7.17685 | 79.88659 | 30 ft | 0 kts | 308° |
| 2026-04-23 00:06 | 7.17689 | 79.88654 | 30 ft | 2 kts | 310° |
| 2026-04-23 00:07 | 7.17701 | 79.88640 | 30 ft | 5 kts | 310° |
| 2026-04-23 00:07 | 7.17717 | 79.88622 | 30 ft | 2 kts | 310° |
| 2026-04-23 00:07 | 7.17731 | 79.88604 | 30 ft | 6 kts | 307° |
| 2026-04-23 00:07 | 7.17767 | 79.88555 | 30 ft | 10 kts | 307° |
| 2026-04-23 00:08 | 7.17807 | 79.88501 | 30 ft | 10 kts | 307° |
| 2026-04-23 00:08 | 7.17848 | 79.88450 | 30 ft | 9 kts | 315° |
| 2026-04-23 00:08 | 7.17905 | 79.88444 | 31 ft | 8 kts | 25° |
| 2026-04-23 00:08 | 7.17945 | 79.88470 | 31 ft | 7 kts | 34° |
| 2026-04-23 00:09 | 7.17981 | 79.88497 | 30 ft | 6 kts | 37° |
| 2026-04-23 00:09 | 7.18016 | 79.88525 | 30 ft | 7 kts | 37° |
| 2026-04-23 00:09 | 7.18054 | 79.88554 | 30 ft | 7 kts | 37° |
| 2026-04-23 00:09 | 7.18113 | 79.88598 | 30 ft | 14 kts | 36° |
| 2026-04-23 00:10 | 7.18205 | 79.88669 | 30 ft | 18 kts | 37° |
| 2026-04-23 00:10 | 7.18306 | 79.88747 | 30 ft | 18 kts | 37° |
| 2026-04-23 00:10 | 7.18410 | 79.88825 | 30 ft | 19 kts | 36° |
| 2026-04-23 00:10 | 7.18502 | 79.88892 | 31 ft | 15 kts | 42° |
| 2026-04-23 00:11 | 7.18589 | 79.88964 | 31 ft | 18 kts | 37° |
| 2026-04-23 00:11 | 7.18696 | 79.89045 | 31 ft | 20 kts | 36° |
| 2026-04-23 00:11 | 7.18797 | 79.89120 | 31 ft | 18 kts | 39° |
| 2026-04-23 00:11 | 7.18895 | 79.89197 | 30 ft | 18 kts | 38° |
| 2026-04-23 00:12 | 7.19001 | 79.89278 | 30 ft | 20 kts | 37° |
| 2026-04-23 00:12 | 7.19110 | 79.89361 | 30 ft | 20 kts | 37° |
| 2026-04-23 00:12 | 7.19214 | 79.89398 | 30 ft | 14 kts | 327° |
| 2026-04-23 00:12 | 7.19222 | 79.89390 | 30 ft | 0 kts | 311° |
| 2026-04-23 00:13 | 7.19227 | 79.89384 | 30 ft | 10 kts | 311° |
| 2026-04-23 00:13 | 7.19231 | 79.89235 | 31 ft | 37 kts | 231° |
| 2026-04-23 00:14 | 7.18971 | 79.89033 | 32 ft | 55 kts | 215° |
| 2026-04-23 00:14 | 7.18644 | 79.88788 | 32 ft | 59 kts | 218° |
| 2026-04-23 00:14 | 7.18313 | 79.88537 | 30 ft | 59 kts | 217° |
| 2026-04-23 00:14 | 7.17988 | 79.88294 | 32 ft | 56 kts | 217° |
| 2026-04-23 00:15 | 7.17687 | 79.88058 | 33 ft | 55 kts | 218° |
| 2026-04-23 00:15 | 7.17383 | 79.87828 | 31 ft | 55 kts | 218° |
| 2026-04-23 00:15 | 7.17085 | 79.87596 | 31 ft | 51 kts | 224° |
| 2026-04-23 00:15 | 7.16920 | 79.87533 | 32 ft | 13 kts | 198° |
| 2026-04-23 00:16 | 7.16913 | 79.87484 | 32 ft | 11 kts | 303° |
| 2026-04-23 00:16 | 7.16989 | 79.87516 | 32 ft | 31 kts | 39° |
| 2026-04-23 00:16 | 7.17357 | 79.87798 | 31 ft | 100 kts | 37° |
| 2026-04-23 00:16 | 7.18076 | 79.88346 | 33 ft | 157 kts | 37° |
| 2026-04-23 00:17 | 7.18998 | 79.89049 | 389 ft | 167 kts | 39° |
| 2026-04-23 00:17 | 7.19916 | 79.89730 | 1003 ft | 163 kts | 30° |
| 2026-04-23 00:17 | 7.21025 | 79.89864 | 1571 ft | 165 kts | 344° |
| 2026-04-23 00:17 | 7.22144 | 79.89455 | 2108 ft | 185 kts | 336° |
| 2026-04-23 00:18 | 7.23368 | 79.88738 | 2368 ft | 224 kts | 320° |
| 2026-04-23 00:18 | 7.24517 | 79.87536 | 2776 ft | 249 kts | 308° |
| 2026-04-23 00:18 | 7.25615 | 79.86178 | 3511 ft | 252 kts | 310° |
| 2026-04-23 00:18 | 7.26746 | 79.84819 | 3946 ft | 257 kts | 310° |
| 2026-04-23 00:19 | 7.27911 | 79.83415 | 4682 ft | 263 kts | 310° |
| 2026-04-23 00:19 | 7.29094 | 79.82001 | 5522 ft | 265 kts | 311° |
| 2026-04-23 00:19 | 7.30282 | 79.80564 | 6332 ft | 268 kts | 309° |
| 2026-04-23 00:19 | 7.31420 | 79.79068 | 7134 ft | 270 kts | 307° |
| 2026-04-23 00:20 | 7.32525 | 79.77532 | 7956 ft | 272 kts | 303° |
| 2026-04-23 00:20 | 7.33267 | 79.75789 | 8786 ft | 275 kts | 276° |
| 2026-04-23 00:20 | 7.32998 | 79.73894 | 9577 ft | 279 kts | 244° |
| 2026-04-23 00:20 | 7.31743 | 79.72410 | 10233 ft | 284 kts | 216° |
| 2026-04-23 00:21 | 7.30082 | 79.71205 | 10535 ft | 307 kts | 214° |
| 2026-04-23 00:21 | 7.28279 | 79.69924 | 10817 ft | 327 kts | 215° |
| 2026-04-23 00:21 | 7.26385 | 79.68545 | 11117 ft | 344 kts | 216° |
| 2026-04-23 00:21 | 7.24430 | 79.67086 | 11585 ft | 354 kts | 216° |
| 2026-04-23 00:22 | 7.22447 | 79.65585 | 12165 ft | 359 kts | 217° |
| 2026-04-23 00:22 | 7.20444 | 79.64057 | 12791 ft | 363 kts | 217° |
| 2026-04-23 00:22 | 7.18415 | 79.62523 | 13425 ft | 367 kts | 215° |
| 2026-04-23 00:22 | 7.16156 | 79.61319 | 13998 ft | 370 kts | 198° |
| 2026-04-23 00:23 | 7.13649 | 79.60705 | 14572 ft | 373 kts | 189° |
| 2026-04-23 00:23 | 7.11081 | 79.60253 | 15142 ft | 376 kts | 191° |
| 2026-04-23 00:23 | 7.08574 | 79.59460 | 15705 ft | 380 kts | 204° |
| 2026-04-23 00:23 | 7.06371 | 79.58051 | 16277 ft | 383 kts | 221° |
| 2026-04-23 00:24 | 7.04467 | 79.56154 | 16855 ft | 386 kts | 227° |
| 2026-04-23 00:24 | 7.02665 | 79.54137 | 17417 ft | 389 kts | 228° |
| 2026-04-23 00:24 | 7.00846 | 79.52049 | 17950 ft | 393 kts | 229° |
| 2026-04-23 00:24 | 6.99064 | 79.49995 | 18397 ft | 397 kts | 229° |
| 2026-04-23 00:25 | 6.97219 | 79.47869 | 18857 ft | 399 kts | 229° |
| 2026-04-23 00:25 | 6.95392 | 79.45765 | 19306 ft | 401 kts | 229° |
| 2026-04-23 00:25 | 6.93553 | 79.43649 | 19748 ft | 403 kts | 229° |
| 2026-04-23 00:25 | 6.91729 | 79.41551 | 20182 ft | 404 kts | 229° |
| 2026-04-23 00:26 | 6.89850 | 79.39390 | 20658 ft | 406 kts | 229° |
| 2026-04-23 00:26 | 6.88011 | 79.37275 | 21142 ft | 407 kts | 229° |
| 2026-04-23 00:26 | 6.86119 | 79.35101 | 21658 ft | 408 kts | 229° |
| 2026-04-23 00:26 | 6.84244 | 79.32946 | 22143 ft | 410 kts | 229° |
| 2026-04-23 00:27 | 6.82362 | 79.30784 | 22636 ft | 411 kts | 229° |
| 2026-04-23 00:27 | 6.80474 | 79.28614 | 23147 ft | 413 kts | 229° |
| 2026-04-23 00:27 | 6.78606 | 79.26467 | 23608 ft | 414 kts | 229° |
| 2026-04-23 00:27 | 6.76700 | 79.24279 | 23997 ft | 417 kts | 228° |
| 2026-04-23 00:28 | 6.74783 | 79.22077 | 24390 ft | 419 kts | 228° |
| 2026-04-23 00:28 | 6.72830 | 79.19835 | 24785 ft | 422 kts | 228° |
| 2026-04-23 00:28 | 6.70890 | 79.17606 | 25179 ft | 424 kts | 228° |
| 2026-04-23 00:28 | 6.68939 | 79.15367 | 25579 ft | 426 kts | 228° |
| 2026-04-23 00:29 | 6.67010 | 79.13152 | 25971 ft | 428 kts | 227° |
| 2026-04-23 00:29 | 6.65040 | 79.10891 | 26362 ft | 430 kts | 227° |
| 2026-04-23 00:29 | 6.63067 | 79.08628 | 26750 ft | 432 kts | 227° |
| 2026-04-23 00:29 | 6.61083 | 79.06351 | 27118 ft | 434 kts | 227° |
| 2026-04-23 00:30 | 6.59091 | 79.04066 | 27477 ft | 436 kts | 227° |
| 2026-04-23 00:30 | 6.57085 | 79.01765 | 27834 ft | 438 kts | 227° |
| 2026-04-23 00:30 | 6.55076 | 78.99460 | 28167 ft | 440 kts | 227° |
| 2026-04-23 00:30 | 6.53053 | 78.97141 | 28525 ft | 441 kts | 227° |
| 2026-04-23 00:31 | 6.51025 | 78.94815 | 28868 ft | 443 kts | 226° |
| 2026-04-23 00:31 | 6.48990 | 78.92482 | 29198 ft | 445 kts | 226° |
| 2026-04-23 00:31 | 6.46944 | 78.90137 | 29527 ft | 447 kts | 226° |
| 2026-04-23 00:31 | 6.44889 | 78.87781 | 29849 ft | 449 kts | 226° |
| 2026-04-23 00:32 | 6.42826 | 78.85416 | 30109 ft | 451 kts | 226° |
| 2026-04-23 00:32 | 6.40753 | 78.83040 | 30370 ft | 453 kts | 226° |
| 2026-04-23 00:32 | 6.38673 | 78.80658 | 30650 ft | 454 kts | 226° |
| 2026-04-23 00:32 | 6.36595 | 78.78276 | 31018 ft | 452 kts | 226° |
| 2026-04-23 00:33 | 6.34525 | 78.75904 | 31411 ft | 451 kts | 226° |
| 2026-04-23 00:33 | 6.32458 | 78.73536 | 31778 ft | 449 kts | 226° |
| 2026-04-23 00:33 | 6.30401 | 78.71180 | 32157 ft | 448 kts | 226° |
| 2026-04-23 00:33 | 6.29012 | 78.69589 | 32395 ft | 447 kts | 226° |
| 2026-04-23 00:34 | 6.26964 | 78.67244 | 32750 ft | 446 kts | 226° |
| 2026-04-23 00:34 | 6.24921 | 78.64904 | 33101 ft | 445 kts | 226° |
| 2026-04-23 00:34 | 6.22907 | 78.62598 | 33456 ft | 444 kts | 226° |
| 2026-04-23 00:34 | 6.20876 | 78.60272 | 33804 ft | 443 kts | 225° |
| 2026-04-23 00:35 | 6.18847 | 78.57949 | 34102 ft | 441 kts | 225° |
| 2026-04-23 00:35 | 6.16826 | 78.55636 | 34423 ft | 440 kts | 225° |
| 2026-04-23 00:35 | 6.14812 | 78.53331 | 34748 ft | 438 kts | 225° |
| 2026-04-23 00:35 | 6.12807 | 78.51037 | 35045 ft | 436 kts | 225° |
| 2026-04-23 00:36 | 6.10809 | 78.48752 | 35340 ft | 435 kts | 225° |
| 2026-04-23 00:36 | 6.08819 | 78.46475 | 35629 ft | 433 kts | 225° |
| 2026-04-23 00:36 | 6.06834 | 78.44205 | 35904 ft | 432 kts | 225° |
| 2026-04-23 00:36 | 6.04853 | 78.41940 | 36170 ft | 431 kts | 225° |
| 2026-04-23 00:37 | 6.02850 | 78.39649 | 36435 ft | 430 kts | 225° |
| 2026-04-23 00:37 | 6.00879 | 78.37396 | 36680 ft | 429 kts | 225° |
| 2026-04-23 00:37 | 5.98914 | 78.35149 | 36934 ft | 428 kts | 225° |
| 2026-04-23 00:37 | 5.96951 | 78.32905 | 37185 ft | 427 kts | 225° |
| 2026-04-23 00:38 | 5.94995 | 78.30670 | 37436 ft | 426 kts | 225° |
| 2026-04-23 00:38 | 5.93043 | 78.28438 | 37685 ft | 425 kts | 225° |
| 2026-04-23 00:38 | 5.91092 | 78.26210 | 37835 ft | 424 kts | 225° |
| 2026-04-23 00:39 | 5.87214 | 78.21779 | 37833 ft | 421 kts | 225° |
| 2026-04-23 00:39 | 5.83379 | 78.17399 | 37820 ft | 420 kts | 225° |
| 2026-04-23 00:40 | 5.79520 | 78.12993 | 37824 ft | 420 kts | 225° |
| 2026-04-23 00:40 | 5.75656 | 78.08583 | 37827 ft | 420 kts | 225° |
| 2026-04-23 00:41 | 5.71796 | 78.04175 | 37825 ft | 420 kts | 225° |
| 2026-04-23 00:41 | 5.68315 | 77.99445 | 37833 ft | 426 kts | 239° |
| 2026-04-23 00:42 | 5.66233 | 77.93833 | 37836 ft | 431 kts | 249° |
| 2026-04-23 00:42 | 5.64498 | 77.88057 | 37831 ft | 432 kts | 249° |
| 2026-04-23 00:43 | 5.62758 | 77.82290 | 37828 ft | 432 kts | 249° |
| 2026-04-23 00:43 | 5.61007 | 77.76521 | 37831 ft | 432 kts | 249° |
| 2026-04-23 00:44 | 5.59255 | 77.70759 | 37829 ft | 432 kts | 249° |
| 2026-04-23 00:44 | 5.57500 | 77.65000 | 37834 ft | 431 kts | 248° |
| 2026-04-23 00:45 | 5.55745 | 77.59243 | 37833 ft | 431 kts | 249° |
| 2026-04-23 00:45 | 5.53990 | 77.53487 | 37839 ft | 431 kts | 248° |
| 2026-04-23 00:46 | 5.52248 | 77.47771 | 37835 ft | 431 kts | 248° |
| 2026-04-23 00:46 | 5.50495 | 77.42023 | 37829 ft | 431 kts | 248° |
| 2026-04-23 00:47 | 5.48741 | 77.36274 | 37828 ft | 431 kts | 248° |
| 2026-04-23 00:47 | 5.46988 | 77.30529 | 37830 ft | 431 kts | 248° |
| 2026-04-23 00:48 | 5.45233 | 77.24783 | 37829 ft | 430 kts | 248° |
| 2026-04-23 00:48 | 5.43480 | 77.19045 | 37836 ft | 430 kts | 248° |
| 2026-04-23 00:49 | 5.41725 | 77.13300 | 37836 ft | 430 kts | 248° |
| 2026-04-23 00:49 | 5.39972 | 77.07564 | 37828 ft | 430 kts | 248° |
| 2026-04-23 00:50 | 5.38218 | 77.01826 | 37830 ft | 430 kts | 248° |
| 2026-04-23 00:50 | 5.36463 | 76.96094 | 37830 ft | 430 kts | 248° |
| 2026-04-23 00:51 | 5.34707 | 76.90358 | 37831 ft | 430 kts | 248° |
| 2026-04-23 00:51 | 5.32954 | 76.84623 | 37831 ft | 430 kts | 248° |
| 2026-04-23 00:52 | 5.31199 | 76.78886 | 37836 ft | 430 kts | 248° |
| 2026-04-23 00:52 | 5.29444 | 76.73155 | 37840 ft | 430 kts | 248° |
| 2026-04-23 00:53 | 5.27686 | 76.67418 | 37838 ft | 430 kts | 248° |
| 2026-04-23 00:53 | 5.25929 | 76.61683 | 37833 ft | 430 kts | 248° |
| 2026-04-23 00:54 | 5.24170 | 76.55948 | 37833 ft | 430 kts | 248° |
| 2026-04-23 00:54 | 5.22410 | 76.50211 | 37829 ft | 430 kts | 248° |
| 2026-04-23 00:55 | 5.20651 | 76.44478 | 37826 ft | 430 kts | 248° |
| 2026-04-23 00:55 | 5.18890 | 76.38741 | 37831 ft | 430 kts | 248° |
| 2026-04-23 00:56 | 5.17129 | 76.33005 | 37834 ft | 430 kts | 248° |
| 2026-04-23 00:56 | 5.15367 | 76.27269 | 37831 ft | 430 kts | 248° |
| 2026-04-23 00:57 | 5.13606 | 76.21538 | 37840 ft | 430 kts | 248° |
| 2026-04-23 00:57 | 5.11844 | 76.15805 | 37836 ft | 430 kts | 248° |
| 2026-04-23 00:58 | 5.10082 | 76.10072 | 37841 ft | 430 kts | 248° |
| 2026-04-23 00:58 | 5.08322 | 76.04339 | 37841 ft | 430 kts | 248° |
| 2026-04-23 00:59 | 5.06561 | 75.98605 | 37833 ft | 430 kts | 248° |
| 2026-04-23 00:59 | 5.04800 | 75.92871 | 37838 ft | 430 kts | 248° |
| 2026-04-23 01:00 | 5.03041 | 75.87144 | 37833 ft | 430 kts | 248° |
| 2026-04-23 01:00 | 5.01281 | 75.81415 | 37836 ft | 430 kts | 248° |
| 2026-04-23 01:01 | 4.99532 | 75.75726 | 37843 ft | 430 kts | 248° |
| 2026-04-23 01:01 | 4.97769 | 75.69998 | 37842 ft | 430 kts | 248° |
| 2026-04-23 01:02 | 4.95845 | 75.64346 | 37832 ft | 425 kts | 240° |
| 2026-04-23 01:02 | 4.93044 | 75.59166 | 37838 ft | 423 kts | 236° |
| 2026-04-23 01:03 | 4.90110 | 75.54052 | 37833 ft | 423 kts | 236° |
| 2026-04-23 01:03 | 4.87179 | 75.48944 | 37831 ft | 423 kts | 236° |
| 2026-04-23 01:04 | 4.84255 | 75.43832 | 37839 ft | 423 kts | 236° |
| 2026-04-23 01:04 | 4.79864 | 75.36165 | 37836 ft | 423 kts | 236° |
| 2026-04-23 01:05 | 4.76934 | 75.31049 | 37837 ft | 423 kts | 236° |
| 2026-04-23 01:05 | 4.74004 | 75.25933 | 37827 ft | 423 kts | 236° |
| 2026-04-23 01:06 | 4.71072 | 75.20817 | 37828 ft | 423 kts | 236° |
| 2026-04-23 01:06 | 4.68134 | 75.15690 | 37834 ft | 425 kts | 236° |
| 2026-04-23 01:07 | 4.65190 | 75.10550 | 37835 ft | 425 kts | 236° |
| 2026-04-23 01:07 | 4.62247 | 75.05414 | 37839 ft | 425 kts | 236° |
| 2026-04-23 01:08 | 4.59303 | 75.00277 | 37830 ft | 425 kts | 236° |
| 2026-04-23 01:08 | 4.56362 | 74.95146 | 37845 ft | 424 kts | 236° |
| 2026-04-23 01:09 | 4.54896 | 74.92588 | 37724 ft | 422 kts | 236° |
| 2026-04-23 01:09 | 4.53432 | 74.90035 | 37016 ft | 424 kts | 236° |
| 2026-04-23 01:09 | 4.51948 | 74.87452 | 36101 ft | 432 kts | 236° |
| 2026-04-23 01:09 | 4.50437 | 74.84820 | 35223 ft | 439 kts | 236° |
| 2026-04-23 01:10 | 4.48904 | 74.82151 | 34387 ft | 445 kts | 235° |
| 2026-04-23 01:10 | 4.47350 | 74.79444 | 33536 ft | 450 kts | 235° |
| 2026-04-23 01:10 | 4.45778 | 74.76708 | 32650 ft | 454 kts | 236° |
| 2026-04-23 01:10 | 4.44199 | 74.73957 | 31820 ft | 457 kts | 236° |
| 2026-04-23 01:11 | 4.42610 | 74.71189 | 31013 ft | 459 kts | 236° |
| 2026-04-23 01:11 | 4.41016 | 74.68410 | 30196 ft | 461 kts | 237° |
| 2026-04-23 01:11 | 4.39412 | 74.65615 | 29261 ft | 464 kts | 237° |
| 2026-04-23 01:11 | 4.37810 | 74.62820 | 28018 ft | 462 kts | 238° |
| 2026-04-23 01:12 | 4.36201 | 74.60018 | 26512 ft | 465 kts | 238° |
| 2026-04-23 01:12 | 4.34582 | 74.57197 | 24957 ft | 470 kts | 239° |
| 2026-04-23 01:12 | 4.32945 | 74.54345 | 23398 ft | 474 kts | 239° |
| 2026-04-23 01:12 | 4.31307 | 74.51489 | 22058 ft | 469 kts | 240° |
| 2026-04-23 01:13 | 4.29745 | 74.48765 | 21662 ft | 442 kts | 240° |
| 2026-04-23 01:13 | 4.28259 | 74.46177 | 21401 ft | 416 kts | 240° |
| 2026-04-23 01:13 | 4.26855 | 74.43733 | 21149 ft | 398 kts | 240° |
| 2026-04-23 01:13 | 4.25477 | 74.41336 | 20916 ft | 397 kts | 240° |
| 2026-04-23 01:14 | 4.24103 | 74.38946 | 20675 ft | 395 kts | 240° |
| 2026-04-23 01:14 | 4.22736 | 74.36566 | 20431 ft | 393 kts | 240° |
| 2026-04-23 01:14 | 4.21373 | 74.34195 | 20193 ft | 392 kts | 240° |
| 2026-04-23 01:14 | 4.20013 | 74.31828 | 19977 ft | 391 kts | 240° |
| 2026-04-23 01:15 | 4.18656 | 74.29467 | 19744 ft | 390 kts | 240° |
| 2026-04-23 01:15 | 4.17304 | 74.27116 | 19511 ft | 389 kts | 240° |
| 2026-04-23 01:15 | 4.15955 | 74.24768 | 19287 ft | 388 kts | 240° |
| 2026-04-23 01:15 | 4.14611 | 74.22429 | 19061 ft | 387 kts | 240° |
| 2026-04-23 01:16 | 4.13268 | 74.20093 | 18836 ft | 386 kts | 240° |
| 2026-04-23 01:16 | 4.11931 | 74.17767 | 18616 ft | 385 kts | 240° |
| 2026-04-23 01:16 | 4.10596 | 74.15445 | 18393 ft | 384 kts | 240° |
| 2026-04-23 01:16 | 4.09265 | 74.13130 | 18192 ft | 379 kts | 240° |
| 2026-04-23 01:17 | 4.07975 | 74.10887 | 18058 ft | 364 kts | 240° |
| 2026-04-23 01:17 | 4.06737 | 74.08733 | 17920 ft | 350 kts | 240° |
| 2026-04-23 01:17 | 4.05546 | 74.06660 | 17771 ft | 337 kts | 240° |
| 2026-04-23 01:17 | 4.04391 | 74.04650 | 17518 ft | 328 kts | 240° |
| 2026-04-23 01:18 | 4.03266 | 74.02692 | 17253 ft | 320 kts | 240° |
| 2026-04-23 01:18 | 4.02168 | 74.00781 | 17002 ft | 313 kts | 240° |
| 2026-04-23 01:18 | 4.01094 | 73.98913 | 16746 ft | 306 kts | 240° |
| 2026-04-23 01:18 | 4.00044 | 73.97086 | 16499 ft | 300 kts | 240° |
| 2026-04-23 01:19 | 3.99014 | 73.95295 | 16249 ft | 294 kts | 240° |
| 2026-04-23 01:19 | 3.98335 | 73.94113 | 16117 ft | 286 kts | 240° |
| 2026-04-23 01:19 | 3.97360 | 73.92419 | 15894 ft | 276 kts | 240° |
| 2026-04-23 01:19 | 3.96417 | 73.90779 | 15652 ft | 268 kts | 240° |
| 2026-04-23 01:20 | 3.95495 | 73.89177 | 15408 ft | 264 kts | 240° |
| 2026-04-23 01:20 | 3.94720 | 73.87552 | 15262 ft | 262 kts | 254° |
| 2026-04-23 01:20 | 3.94579 | 73.85758 | 15139 ft | 259 kts | 281° |
| 2026-04-23 01:20 | 3.95295 | 73.84134 | 15022 ft | 256 kts | 310° |
| 2026-04-23 01:21 | 3.96696 | 73.83072 | 14905 ft | 254 kts | 338° |
| 2026-04-23 01:21 | 3.98403 | 73.82822 | 14774 ft | 246 kts | 8° |
| 2026-04-23 01:21 | 3.99906 | 73.83516 | 14661 ft | 240 kts | 43° |
| 2026-04-23 01:21 | 4.00872 | 73.84875 | 14539 ft | 241 kts | 62° |
| 2026-04-23 01:22 | 4.01588 | 73.86393 | 14349 ft | 241 kts | 64° |
| 2026-04-23 01:22 | 4.02295 | 73.87915 | 14104 ft | 241 kts | 64° |
| 2026-04-23 01:22 | 4.03022 | 73.89422 | 13814 ft | 239 kts | 63° |
| 2026-04-23 01:22 | 4.03753 | 73.90913 | 13506 ft | 238 kts | 63° |
| 2026-04-23 01:23 | 4.04474 | 73.92393 | 13171 ft | 234 kts | 63° |
| 2026-04-23 01:23 | 4.05148 | 73.93860 | 12846 ft | 231 kts | 65° |
| 2026-04-23 01:23 | 4.05764 | 73.95342 | 12523 ft | 231 kts | 70° |
| 2026-04-23 01:23 | 4.06030 | 73.96926 | 12102 ft | 233 kts | 91° |
| 2026-04-23 01:24 | 4.05585 | 73.98480 | 11672 ft | 237 kts | 120° |
| 2026-04-23 01:24 | 4.04396 | 73.99610 | 11243 ft | 240 kts | 151° |
| 2026-04-23 01:24 | 4.02766 | 73.99945 | 10820 ft | 244 kts | 184° |
| 2026-04-23 01:24 | 4.01190 | 73.99361 | 10402 ft | 246 kts | 217° |
| 2026-04-23 01:25 | 3.99986 | 73.98145 | 10001 ft | 247 kts | 230° |
| 2026-04-23 01:25 | 3.99130 | 73.96674 | 9598 ft | 244 kts | 249° |
| 2026-04-23 01:25 | 3.98628 | 73.95077 | 9135 ft | 238 kts | 256° |
| 2026-04-23 01:25 | 3.98247 | 73.93480 | 8673 ft | 235 kts | 258° |
| 2026-04-23 01:26 | 3.97904 | 73.91862 | 8237 ft | 240 kts | 259° |
| 2026-04-23 01:26 | 3.97570 | 73.90209 | 7829 ft | 250 kts | 259° |
| 2026-04-23 01:26 | 3.97218 | 73.88421 | 7513 ft | 274 kts | 259° |
| 2026-04-23 01:26 | 3.96837 | 73.86472 | 7260 ft | 293 kts | 259° |
| 2026-04-23 01:27 | 3.96445 | 73.84461 | 7024 ft | 295 kts | 259° |
| 2026-04-23 01:27 | 3.96055 | 73.82453 | 6793 ft | 293 kts | 259° |
| 2026-04-23 01:27 | 3.95668 | 73.80454 | 6563 ft | 292 kts | 259° |
| 2026-04-23 01:27 | 3.95283 | 73.78464 | 6331 ft | 291 kts | 259° |
| 2026-04-23 01:28 | 3.94964 | 73.76470 | 6089 ft | 290 kts | 265° |
| 2026-04-23 01:28 | 3.94885 | 73.74462 | 5845 ft | 288 kts | 270° |
| 2026-04-23 01:28 | 3.94880 | 73.72466 | 5606 ft | 286 kts | 270° |
| 2026-04-23 01:28 | 3.94887 | 73.70485 | 5504 ft | 283 kts | 270° |
| 2026-04-23 01:29 | 3.94893 | 73.68521 | 5492 ft | 275 kts | 270° |
| 2026-04-23 01:29 | 3.94896 | 73.66668 | 5486 ft | 257 kts | 270° |
| 2026-04-23 01:29 | 3.94898 | 73.64944 | 5515 ft | 241 kts | 270° |
| 2026-04-23 01:29 | 3.94898 | 73.63277 | 5280 ft | 238 kts | 270° |
| 2026-04-23 01:30 | 3.94897 | 73.61635 | 5043 ft | 231 kts | 270° |
| 2026-04-23 01:30 | 3.94896 | 73.60040 | 4734 ft | 228 kts | 270° |
| 2026-04-23 01:30 | 3.94894 | 73.58470 | 4434 ft | 223 kts | 270° |
| 2026-04-23 01:30 | 3.94892 | 73.56935 | 4175 ft | 218 kts | 270° |
| 2026-04-23 01:31 | 3.94965 | 73.55434 | 3961 ft | 216 kts | 279° |
| 2026-04-23 01:31 | 3.95675 | 73.54152 | 3573 ft | 213 kts | 321° |
| 2026-04-23 01:31 | 3.96958 | 73.53438 | 3287 ft | 209 kts | 340° |
| 2026-04-23 01:31 | 3.98336 | 73.53139 | 3096 ft | 199 kts | 356° |
| 2026-04-23 01:32 | 3.99729 | 73.53114 | 2669 ft | 204 kts | 1° |
| 2026-04-23 01:32 | 4.01134 | 73.53123 | 2427 ft | 197 kts | 0° |
| 2026-04-23 01:32 | 4.02464 | 73.53123 | 2305 ft | 185 kts | 360° |
| 2026-04-23 01:32 | 4.03711 | 73.53119 | 2182 ft | 173 kts | 360° |
| 2026-04-23 01:33 | 4.04872 | 73.53114 | 2043 ft | 160 kts | 360° |
| 2026-04-23 01:33 | 4.05934 | 73.53111 | 1968 ft | 146 kts | 0° |
| 2026-04-23 01:33 | 4.06947 | 73.53109 | 1994 ft | 146 kts | 0° |
| 2026-04-23 01:33 | 4.07952 | 73.53109 | 2005 ft | 144 kts | 0° |
| 2026-04-23 01:34 | 4.08959 | 73.53111 | 1823 ft | 145 kts | 0° |
| 2026-04-23 01:34 | 4.09969 | 73.53110 | 1634 ft | 145 kts | 360° |
| 2026-04-23 01:34 | 4.10978 | 73.53109 | 1443 ft | 145 kts | 360° |
| 2026-04-23 01:34 | 4.11985 | 73.53107 | 1250 ft | 145 kts | 360° |
| 2026-04-23 01:35 | 4.12990 | 73.53107 | 1058 ft | 144 kts | 360° |
| 2026-04-23 01:35 | 4.13990 | 73.53106 | 883 ft | 144 kts | 0° |
| 2026-04-23 01:35 | 4.14988 | 73.53105 | 713 ft | 143 kts | 360° |
| 2026-04-23 01:35 | 4.15986 | 73.53104 | 536 ft | 143 kts | 359° |
| 2026-04-23 01:36 | 4.16980 | 73.53103 | 358 ft | 143 kts | 359° |
| 2026-04-23 01:36 | 4.17972 | 73.53100 | 171 ft | 143 kts | 0° |
| 2026-04-23 01:36 | 4.18961 | 73.53110 | 22 ft | 139 kts | 355° |
| 2026-04-23 01:36 | 4.19796 | 73.53101 | 16 ft | 100 kts | 0° |
| 2026-04-23 01:37 | 4.20206 | 73.53102 | 15 ft | 12 kts | 0° |
| 2026-04-23 01:37 | 4.20293 | 73.53101 | 15 ft | 14 kts | 359° |
| 2026-04-23 01:37 | 4.20357 | 73.53082 | 17 ft | 9 kts | 308° |
| 2026-04-23 01:37 | 4.20368 | 73.53036 | 15 ft | 0 kts | 271° |
| 2026-04-23 01:38 | 4.20368 | 73.53020 | 15 ft | 6 kts | 271° |
| 2026-04-23 01:38 | 4.20366 | 73.52957 | 15 ft | 12 kts | 266° |
| 2026-04-23 01:39 | 4.20412 | 73.52896 | 15 ft | 12 kts | 342° |
| 2026-04-23 01:39 | 4.20492 | 73.52893 | 15 ft | 12 kts | 0° |
| 2026-04-23 01:39 | 4.20575 | 73.52890 | 15 ft | 12 kts | 358° |
| 2026-04-23 01:39 | 4.20661 | 73.52890 | 15 ft | 13 kts | 359° |
| 2026-04-23 01:40 | 4.20750 | 73.52889 | 15 ft | 13 kts | 359° |
| 2026-04-23 01:40 | 4.20840 | 73.52899 | 15 ft | 13 kts | 17° |
| 2026-04-23 01:40 | 4.20921 | 73.52938 | 17 ft | 14 kts | 58° |
| 2026-04-23 01:40 | 4.20928 | 73.53036 | 15 ft | 15 kts | 91° |
| 2026-04-23 01:41 | 4.20864 | 73.53100 | 16 ft | 16 kts | 178° |
| 2026-04-23 01:41 | 4.20741 | 73.53100 | 15 ft | 19 kts | 180° |
| 2026-04-23 01:41 | 4.20606 | 73.53100 | 17 ft | 20 kts | 180° |
| 2026-04-23 01:41 | 4.20457 | 73.53099 | 15 ft | 22 kts | 182° |
| 2026-04-23 01:42 | 4.20304 | 73.53102 | 15 ft | 22 kts | 181° |
| 2026-04-23 01:42 | 4.20150 | 73.53100 | 15 ft | 22 kts | 180° |
| 2026-04-23 01:42 | 4.19989 | 73.53100 | 15 ft | 24 kts | 179° |
| 2026-04-23 01:42 | 4.19815 | 73.53101 | 15 ft | 26 kts | 179° |
| 2026-04-23 01:43 | 4.19636 | 73.53101 | 15 ft | 26 kts | 180° |
| 2026-04-23 01:43 | 4.19458 | 73.53101 | 15 ft | 26 kts | 180° |
| 2026-04-23 01:43 | 4.19280 | 73.53101 | 16 ft | 26 kts | 180° |
| 2026-04-23 01:43 | 4.19102 | 73.53101 | 16 ft | 24 kts | 180° |
| 2026-04-23 01:44 | 4.19010 | 73.53047 | 16 ft | 16 kts | 262° |
| 2026-04-23 01:44 | 4.19010 | 73.52981 | 15 ft | 0 kts | 271° |
| 2026-04-23 01:44 | 4.19010 | 73.52972 | 16 ft | 5 kts | 269° |
| 2026-04-23 01:44 | 4.18997 | 73.52933 | 17 ft | 12 kts | 229° |
| 2026-04-23 01:45 | 4.18932 | 73.52889 | 15 ft | 6 kts | 247° |
| 2026-04-23 01:45 | 4.18900 | 73.52854 | 15 ft | 8 kts | 196° |
| 2026-04-23 01:45 | 4.18875 | 73.52824 | 15 ft | 7 kts | 259° |
| 2026-04-23 01:45 | 4.18873 | 73.52790 | 18 ft | 0 kts | 266° |